Friday, December 14, 2018, 7:37 PM EST
Back to Local

KBDR, Sikorsky Memorial Airport

Location: Stratford, CT, United States Lat: 41.167
Local Time: 7:37 PM EST ( 0:37 GMT) Lon: -73.133
Time Zone: US/Eastern Elev: 9 ft

Show me the last for .
Show Decoded

2018-12-14 19:12 METAR KBDR 150012Z 00000KT 10SM BKN016 BKN080 OVC090 07/06 A3034 RMK AO2
                 RAB2356E09 P0000 T00720061 =
2018-12-14 18:52 METAR KBDR 142352Z 00000KT 10SM BKN075 OVC090 08/07 A3034 RMK AO2 RAE18 SLP274
                 P0000 60001 T00780067 10083 20061 58011 =
2018-12-14 17:52 METAR KBDR 142252Z 14006KT 10SM -RA OVC070 08/06 A3035 RMK AO2 RAB35 SLP276
                 P0001 T00830061 =
2018-12-14 17:17 METAR KBDR 142217Z 14004KT 10SM SCT029 OVC070 08/06 A3037 RMK AO2 T00830061 =
2018-12-14 17:09 METAR KBDR 142209Z 15004KT 10SM BKN029 OVC070 08/06 A3037 RMK AO2 T00830061 =
2018-12-14 16:52 METAR KBDR 142152Z 14004KT 10SM OVC031 07/05 A3037 RMK AO2 SLP283 T00720050 =
2018-12-14 15:52 METAR KBDR 142052Z 10003KT 10SM FEW036 OVC070 07/04 A3037 RMK AO2 SLP284
                 T00670044 58010 =
2018-12-14 15:22 METAR KBDR 142022Z 09004KT 10SM SCT026 OVC034 07/03 A3039 RMK AO2 T00670033 =
2018-12-14 15:15 METAR KBDR 142015Z 08004KT 10SM BKN026 OVC032 07/03 A3039 RMK AO2 T00720033 =
2018-12-14 14:52 METAR KBDR 141952Z 08005KT 10SM OVC032 07/03 A3039 RMK AO2 SLP290 T00720033 =
2018-12-14 14:31 METAR KBDR 141931Z 07005KT 10SM OVC030 07/03 A3040 RMK AO2 T00720028 =
2018-12-14 13:52 METAR KBDR 141852Z 06005KT 10SM OVC028 07/03 A3039 RMK AO2 SLP291 T00720028 =
2018-12-14 12:52 METAR KBDR 141752Z 07007KT 10SM OVC025 06/02 A3040 RMK AO2 SLP295 T00610022
                 10067 20006 56041 =
2018-12-14 11:52 METAR KBDR 141652Z 07007KT 10SM BKN027 OVC034 06/02 A3043 RMK AO2 SLP306
                 T00610022 =
2018-12-14 10:52 METAR KBDR 141552Z 06007KT 10SM OVC060 05/02 A3048 RMK AO2 SLP321 T00500017 =
2018-12-14 10:31 METAR KBDR 141531Z 06007KT 10SM SCT027 OVC060 06/02 A3049 RMK AO2 T00560017 =
2018-12-14 09:52 METAR KBDR 141452Z 03004KT 10SM OVC026 04/01 A3052 RMK AO2 SLP336 T00440011
                 51010 =
2018-12-14 08:52 METAR KBDR 141352Z 05004KT 10SM OVC024 02/00 A3052 RMK AO2 SLP333 T00220000 =
2018-12-14 08:05 METAR KBDR 141305Z 03004KT 10SM BKN022 01/M01 A3051 RMK AO2 T00111011 =
2018-12-14 07:52 METAR KBDR 141252Z 03005KT 10SM SCT023 01/M01 A3051 RMK AO2 SLP331 T00111011 =
2018-12-14 06:52 METAR KBDR 141152Z 03005KT 10SM CLR 01/M02 A3049 RMK AO2 SLP325 T00061017 10028
                 20006 51001 =
2018-12-14 05:52 METAR KBDR 141052Z AUTO 04006KT 10SM CLR 01/M02 A3049 RMK AO2 SLP324 T00061017 =
2018-12-14 04:52 METAR KBDR 140952Z AUTO 05006KT 10SM SCT042 01/M02 A3050 RMK AO2 SLP326
                 T00111017 =
2018-12-14 03:52 METAR KBDR 140852Z AUTO 06008KT 10SM BKN040 02/M02 A3049 RMK AO2 SLP325
                 T00171017 58008 =
2018-12-14 02:52 METAR KBDR 140752Z AUTO 06007KT 10SM OVC039 03/M01 A3050 RMK AO2 SLP328
                 T00281006 =
2018-12-14 01:52 METAR KBDR 140652Z AUTO 05007KT 10SM OVC039 02/M01 A3051 RMK AO2 SLP330
                 T00221011 =
2018-12-14 00:59 METAR KBDR 140559Z AUTO 04007KT 10SM SCT023 OVC039 02/M02 A3052 RMK AO2
                 T00171017 =
2018-12-14 00:52 METAR KBDR 140552Z AUTO 03009KT 10SM BKN023 OVC037 02/M02 A3052 RMK AO2 SLP333
                 T00171017 10022 20011 50002 =
2018-12-13 23:52 METAR KBDR 140452Z AUTO 04006KT 10SM OVC019 02/M01 A3052 RMK AO2 SLP335
                 T00221011 400221028 =
2018-12-13 22:52 METAR KBDR 140352Z AUTO 03008KT 10SM OVC016 02/M02 A3052 RMK AO2 SLP334
                 T00171017 =
2018-12-13 21:52 METAR KBDR 140252Z 05008KT 10SM OVC016 02/M01 A3051 RMK AO2 SLP331 T00171011
                 50006 =
2018-12-13 20:52 METAR KBDR 140152Z 03008KT 10SM OVC016 02/M01 A3051 RMK AO2 SLP332 T00171011 =
2018-12-13 19:52 METAR KBDR 140052Z 03009KT 10SM OVC015 02/M01 A3050 RMK AO2 SLP329 T00171006 =

Support USWX by starting your Amazon purchase here.